createdAt,value
2023-01-27T10:54:27.566Z,1.60
2023-01-27T10:57:05.185Z,1.88
2023-01-27T10:59:40.138Z,1.70
2023-01-27T11:04:52.034Z,6.82
2023-01-27T11:07:22.698Z,6.40
2023-01-27T11:09:56.909Z,6.18
2023-01-27T11:12:35.923Z,6.45
2023-01-27T11:15:17.165Z,6.43
2023-01-27T11:18:01.297Z,6.25
2023-01-27T11:20:35.261Z,7.88
2023-01-27T11:23:19.844Z,9.88
2023-01-27T11:26:17.955Z,8.38
2023-01-27T11:28:53.580Z,9.50
2023-01-27T11:31:37.431Z,8.70
2023-01-27T11:34:26.453Z,7.57
2023-01-27T11:36:52.918Z,7.20
2023-01-27T11:39:19.750Z,6.70
2023-01-27T11:41:50.500Z,6.97
2023-01-27T11:44:26.169Z,7.13
2023-01-27T11:46:54.429Z,6.93
2023-01-27T11:49:31.010Z,6.60
2023-01-27T11:52:06.534Z,6.57
2023-01-27T11:54:39.198Z,6.20
2023-01-27T11:57:05.749Z,6.25
2023-01-27T11:59:38.236Z,6.82
2023-01-27T12:02:08.304Z,5.70
2023-01-27T12:04:52.010Z,6.50
2023-01-27T12:07:38.892Z,6.80
2023-01-27T12:10:31.180Z,6.03
2023-01-27T12:13:01.217Z,6.10
2023-01-27T12:15:30.576Z,5.85
2023-01-27T12:18:02.727Z,5.63
2023-01-27T12:20:37.278Z,5.78
2023-01-27T12:23:27.217Z,5.93
2023-01-27T12:25:57.921Z,5.90
2023-01-27T12:28:36.238Z,5.32
2023-01-27T12:31:07.417Z,5.25
2023-01-27T12:33:36.342Z,5.90
2023-01-27T12:36:15.308Z,5.30
2023-01-27T12:38:51.568Z,5.35
2023-01-27T12:41:33.893Z,5.73
2023-01-27T12:44:19.453Z,5.22
2023-01-27T12:47:25.806Z,5.75
2023-01-27T12:50:27.391Z,5.70
2023-01-27T12:53:13.362Z,5.35
2023-01-27T12:55:56.893Z,5.40
2023-01-27T12:58:29.924Z,5.10
2023-01-27T13:00:57.770Z,5.18
2023-01-27T13:03:25.369Z,5.15
2023-01-27T13:05:58.044Z,5.40
2023-01-27T13:08:27.178Z,5.10
2023-01-27T13:10:59.639Z,5.30
2023-01-27T13:13:28.442Z,5.55
2023-01-27T13:16:00.450Z,5.60
2023-01-27T13:18:33.724Z,5.22
2023-01-27T13:21:21.246Z,5.47
2023-01-27T13:23:48.310Z,4.93
2023-01-27T13:26:22.434Z,4.72
2023-01-27T13:29:00.273Z,4.50
2023-01-27T13:31:45.140Z,5.47
2023-01-27T13:34:35.841Z,4.85
2023-01-27T13:37:20.734Z,5.38
2023-01-27T13:40:01.193Z,4.57
2023-01-27T13:42:41.126Z,5.40
2023-01-27T13:45:24.819Z,5.53
2023-01-27T13:47:53.504Z,5.07
2023-01-27T13:50:22.712Z,5.38
2023-01-27T13:52:55.264Z,5.60
2023-01-27T13:55:26.994Z,5.38
2023-01-27T13:58:26.062Z,4.80
2023-01-27T14:01:24.193Z,4.60
2023-01-27T14:04:28.119Z,5.72
2023-01-27T14:07:02.221Z,5.72
2023-01-27T14:09:44.517Z,5.95
2023-01-27T14:12:23.935Z,5.55
2023-01-27T14:14:58.516Z,6.32
2023-01-27T14:17:48.295Z,5.88
2023-01-27T14:20:28.536Z,7.13
2023-01-27T14:23:22.404Z,6.15
2023-01-27T14:26:16.497Z,6.18
2023-01-27T14:29:04.565Z,6.40
2023-01-27T14:31:49.809Z,6.47
2023-01-27T14:34:33.331Z,6.85
2023-01-27T14:37:27.292Z,7.07
2023-01-27T14:40:13.477Z,6.40
2023-01-27T14:42:52.078Z,7.18
2023-01-27T14:45:21.357Z,7.15
2023-01-27T14:48:13.486Z,8.25
2023-01-27T14:50:54.598Z,8.25
2023-01-27T14:53:49.731Z,7.57
2023-01-27T14:56:32.406Z,7.53
2023-01-27T14:59:16.430Z,8.45
2023-01-27T15:02:08.414Z,7.97
2023-01-27T15:05:16.621Z,9.50
2023-01-27T15:08:01.964Z,8.95
2023-01-27T15:10:30.324Z,9.95
2023-01-27T15:13:13.641Z,8.85
2023-01-27T15:16:01.175Z,9.60
2023-01-27T15:18:42.209Z,9.80
2023-01-27T15:21:46.158Z,9.20
2023-01-27T15:24:25.450Z,8.65
2023-01-27T15:26:53.476Z,9.68
2023-01-27T15:29:26.066Z,8.82
2023-01-27T15:32:11.893Z,8.95
2023-01-27T15:34:39.151Z,8.60
2023-01-27T15:37:28.132Z,9.10
2023-01-27T15:40:16.641Z,9.00
2023-01-27T15:42:55.228Z,8.75
2023-01-27T15:45:34.923Z,8.80
2023-01-27T15:48:07.257Z,9.48
2023-01-27T15:50:38.113Z,10.68
2023-01-27T15:53:13.494Z,9.88
2023-01-27T15:55:53.344Z,8.10
2023-01-27T15:58:33.133Z,8.57
2023-01-27T16:01:01.449Z,9.00
2023-01-27T16:03:44.845Z,9.50
2023-01-27T16:06:25.694Z,12.27
2023-01-27T16:09:01.822Z,10.82
2023-01-27T16:11:28.285Z,9.88
2023-01-27T16:14:13.884Z,10.05
2023-01-27T16:16:45.351Z,9.25
2023-01-27T16:19:21.387Z,9.13
2023-01-27T16:21:59.489Z,9.43
2023-01-27T16:24:46.021Z,9.57
2023-01-27T16:27:34.591Z,9.68
2023-01-27T16:30:24.245Z,10.20
2023-01-27T16:33:08.237Z,9.65
2023-01-27T16:35:51.823Z,9.77
2023-01-27T16:38:37.900Z,10.23
2023-01-27T16:41:17.496Z,9.75
2023-01-27T16:43:46.405Z,9.23
2023-01-27T16:46:28.240Z,9.60
2023-01-27T16:48:55.729Z,9.82
2023-01-27T16:51:26.141Z,10.10
2023-01-27T16:53:56.833Z,9.77
2023-01-27T16:56:34.754Z,13.23
2023-01-27T16:59:16.349Z,17.48
2023-01-27T17:01:48.708Z,11.50
2023-01-27T17:04:24.588Z,11.27
2023-01-27T17:06:53.656Z,9.88
2023-01-27T17:09:27.403Z,10.35
2023-01-27T17:11:55.503Z,10.13
2023-01-27T17:14:36.586Z,9.95
2023-01-27T17:17:06.034Z,9.77
2023-01-27T17:19:35.629Z,10.75
2023-01-27T17:22:06.523Z,9.38
2023-01-27T17:24:36.783Z,11.23
2023-01-27T17:27:26.486Z,10.40
2023-01-27T17:30:00.811Z,11.38
2023-01-27T17:32:32.628Z,11.70
2023-01-27T17:35:05.556Z,12.18
2023-01-27T17:37:32.558Z,11.68
2023-01-27T17:40:01.592Z,11.65
2023-01-27T17:42:32.996Z,11.43
2023-01-27T17:45:27.973Z,10.70
2023-01-27T17:47:58.143Z,11.98
2023-01-27T17:50:33.103Z,12.05
2023-01-27T17:52:59.998Z,10.15
2023-01-27T17:55:26.927Z,12.13
2023-01-27T17:58:05.385Z,12.55
2023-01-27T18:00:38.009Z,14.70
2023-01-27T18:03:20.087Z,11.30
2023-01-27T18:05:50.200Z,11.60
2023-01-27T18:08:18.801Z,10.65
2023-01-27T18:10:45.961Z,11.55
2023-01-27T18:13:19.737Z,11.73
2023-01-27T18:15:58.896Z,12.05
2023-01-27T18:18:30.761Z,11.38
2023-01-27T18:20:57.266Z,11.52
2023-01-27T18:23:28.759Z,11.35
2023-01-27T18:26:07.534Z,10.98
2023-01-27T18:28:37.191Z,11.57
2023-01-27T18:31:04.773Z,11.25
2023-01-27T18:33:33.717Z,10.93
2023-01-27T18:36:00.992Z,10.95
2023-01-27T18:38:32.630Z,11.80
2023-01-27T18:41:11.127Z,11.02
2023-01-27T18:43:37.775Z,11.07
2023-01-27T18:48:37.228Z,11.27
2023-01-27T18:51:09.338Z,12.50
2023-01-27T18:53:35.759Z,12.18
2023-01-27T18:56:02.979Z,11.32
2023-01-27T18:58:29.480Z,12.27
2023-01-27T19:00:57.990Z,11.38
2023-01-27T19:03:27.039Z,12.02
2023-01-27T19:05:54.073Z,13.10
2023-01-27T19:08:23.013Z,12.93
2023-01-27T19:10:50.030Z,11.35
2023-01-27T19:13:17.266Z,12.98
2023-01-27T19:15:50.109Z,11.23
2023-01-27T19:18:28.676Z,10.88
2023-01-27T19:20:55.248Z,12.63
2023-01-27T19:25:54.632Z,10.90
2023-01-27T19:28:32.647Z,11.77
2023-01-27T19:31:00.001Z,11.07
2023-01-27T19:33:28.225Z,11.15
2023-01-27T19:36:11.812Z,11.00
2023-01-27T19:38:38.262Z,11.20
2023-01-27T19:41:05.457Z,10.10
2023-01-27T19:43:32.139Z,10.25
2023-01-27T19:48:25.412Z,9.60
2023-01-27T19:50:52.594Z,11.07
2023-01-27T19:53:20.773Z,9.88
2023-01-27T19:55:47.783Z,10.13
2023-01-27T19:58:26.385Z,9.63
2023-01-27T20:00:54.734Z,9.43
2023-01-27T20:03:23.436Z,8.80
2023-01-27T20:05:50.381Z,9.35
2023-01-27T20:10:46.072Z,9.10
2023-01-27T20:13:16.202Z,10.27
2023-01-27T20:15:42.785Z,8.60
2023-01-27T20:20:44.258Z,9.52
2023-01-27T20:23:17.314Z,8.07
2023-01-27T20:25:44.374Z,9.93
2023-01-27T20:28:13.102Z,9.48
2023-01-27T20:30:42.267Z,9.35
2023-01-27T20:33:10.148Z,7.63
2023-01-27T20:35:37.748Z,7.90
2023-01-27T20:38:05.291Z,8.07
2023-01-27T20:40:33.342Z,7.68
2023-01-27T20:43:03.227Z,8.25
2023-01-27T20:45:30.563Z,7.82
2023-01-27T20:48:00.156Z,7.60
2023-01-27T20:50:27.800Z,7.82
2023-01-27T20:52:55.534Z,7.82
2023-01-27T20:55:23.386Z,7.38
2023-01-27T20:57:50.935Z,7.50
2023-01-27T21:00:20.987Z,7.32
2023-01-27T21:02:49.207Z,7.80
2023-01-27T21:05:17.028Z,7.75
2023-01-27T21:07:45.116Z,7.95
2023-01-27T21:10:12.236Z,7.22
2023-01-27T21:12:39.577Z,7.45
2023-01-27T21:15:09.802Z,7.75
2023-01-27T21:17:39.799Z,8.13
2023-01-27T21:20:09.097Z,7.22
2023-01-27T21:22:36.050Z,7.32
2023-01-27T21:25:03.157Z,8.07
2023-01-27T21:27:30.358Z,8.38
2023-01-27T21:29:57.622Z,7.43
2023-01-27T21:32:24.441Z,7.70
2023-01-27T21:34:51.345Z,7.10
2023-01-27T21:37:19.652Z,8.13
2023-01-27T21:39:46.561Z,7.90
2023-01-27T21:45:15.188Z,7.28
2023-01-27T21:47:42.665Z,8.63
2023-01-27T21:50:11.631Z,8.30
2023-01-27T21:52:39.670Z,8.32
2023-01-27T21:55:12.581Z,8.43
2023-01-27T21:57:39.903Z,8.73
2023-01-27T22:00:09.253Z,8.40
2023-01-27T22:02:42.250Z,9.30
2023-01-27T22:05:11.160Z,8.40
2023-01-27T22:07:38.427Z,8.75
2023-01-27T22:10:13.846Z,9.18
2023-01-27T22:12:40.339Z,9.10
2023-01-27T22:15:07.536Z,8.88
2023-01-27T22:17:35.332Z,9.68
2023-01-27T22:20:02.695Z,10.13
2023-01-27T22:22:29.095Z,9.45
2023-01-27T22:24:55.571Z,10.02
2023-01-27T22:27:22.151Z,9.95
2023-01-27T22:32:15.134Z,9.23
2023-01-27T22:34:43.448Z,9.88
2023-01-27T22:37:10.177Z,11.00
2023-01-27T22:39:38.174Z,10.23
2023-01-27T22:42:04.760Z,9.95
2023-01-27T22:46:57.527Z,9.00
2023-01-27T22:49:23.921Z,8.55
2023-01-27T22:51:50.367Z,10.50
2023-01-27T22:54:16.796Z,9.13
2023-01-27T22:56:43.321Z,9.63
2023-01-27T22:59:13.350Z,9.52
2023-01-27T23:01:40.273Z,10.45
2023-01-27T23:04:06.742Z,10.18
2023-01-27T23:06:33.185Z,10.18
2023-01-27T23:08:59.651Z,10.07
2023-01-27T23:11:26.101Z,10.73
2023-01-27T23:13:52.658Z,10.25
2023-01-27T23:18:45.874Z,9.73
2023-01-27T23:21:12.442Z,9.32
2023-01-27T23:26:08.224Z,10.30
2023-01-27T23:28:37.030Z,10.75
2023-01-27T23:31:04.621Z,10.82
2023-01-27T23:33:36.189Z,10.23
2023-01-27T23:36:03.399Z,10.70
2023-01-27T23:38:34.045Z,9.77
2023-01-27T23:41:05.742Z,9.85
2023-01-27T23:43:32.170Z,10.00
2023-01-27T23:45:59.255Z,10.93
2023-01-27T23:48:26.105Z,9.77
2023-01-27T23:50:52.624Z,9.68
2023-01-27T23:53:19.385Z,9.45
2023-01-27T23:55:54.624Z,9.85
2023-01-27T23:58:21.315Z,10.20
